• Join FlightAware (Why Join?)
  • Login
  • US Flag 
10:29AM EST


 

Airport Tracker/Info


-or-


 

Live Flight TrackerFlight Track Log ✈ VOZ1486 ✈ 29-Apr-2013 ✈ YBRM / BME - YPPH / PER

Flight Track Log - Related Links

Times and Time Zones

All times are in EDT time to prevent confusion due to time zone crossing. See the VOZ1486 flight status page for this flight to view local times or setup timezone preferences in your user account.

Time Position Orientation Groundspeed Altitude Reporting Facility
EDT Latitude Longitude Course Direction KTS MPH feet Rate Location/Type
02:43AM -18.0484 122.1874 202° Southwest  Level FlightAware Approximate
02:43AM -18.0504 122.1639 203° Southwest 16,500  Level Aus ATC (Calculated)
02:43AM -18.0504 122.1639 203° Southwest 16,500 720 Level Aus ATC (Calculated)
02:45AM -18.1868 122.1061 202° Southwest  Level FlightAware Approximate
02:46AM -18.2890 122.0627 202° Southwest  Level FlightAware Approximate
02:46AM -18.2065 122.0567 202° Southwest 16,500  Level Aus ATC (Calculated)
02:47AM -18.3090 122.0139 202° Southwest  Level FlightAware Approximate
02:48AM -18.4115 121.9711 202° Southwest  Level FlightAware Approximate
02:48AM -18.3625 121.9493 201° Southwest 38,000  Level Aus ATC (Calculated)
02:49AM -18.4653 121.9072 201° Southwest  Level FlightAware Approximate
02:49AM -18.4534 121.9120 201° Southwest 38,000  Level Aus ATC (Calculated)
02:49AM -18.5444 121.8747 201° Southwest 38,000  Level Aus ATC (Calculated)
02:51AM -18.6538 121.8297 201° Southwest  Level FlightAware Approximate
02:52AM -18.7893 121.7740 201° Southwest  Level FlightAware Approximate
02:53AM -18.8920 121.7316 201° Southwest  Level FlightAware Approximate
02:53AM -18.9989 121.6875 201° Southwest 38,000  Level Aus ATC (Calculated)
02:54AM -18.9947 121.6892 201° Southwest  Level FlightAware Approximate
02:55AM -19.1409 121.6288 201° Southwest  Level FlightAware Approximate
02:55AM -19.1806 121.6124 201° Southwest 38,000  Level Aus ATC (Calculated)
02:57AM -19.3227 121.5535 201° Southwest  Level FlightAware Approximate
02:57AM -19.4531 121.4993 201° Southwest 38,000  Level Aus ATC (Calculated)
02:58AM -19.4254 121.5109 201° Southwest  Level FlightAware Approximate
02:59AM -19.5952 121.4402 201° Southwest  Level FlightAware Approximate
03:00AM -19.6978 121.3975 201° Southwest  Level FlightAware Approximate
03:01AM -19.8005 121.3547 201° Southwest  Level FlightAware Approximate
03:01AM -19.8728 121.3244 202° Southwest 38,000  Level Aus ATC (Calculated)
03:03AM -20.0113 121.2665 201° Southwest  Level FlightAware Approximate
03:03AM -20.1550 121.2063 202° Southwest 38,000  Level Aus ATC (Calculated)
03:04AM -20.1178 121.2219 201° Southwest  Level FlightAware Approximate
03:04AM -20.2679 121.1589 202° Southwest 38,000  Level Aus ATC (Calculated)
03:05AM -20.2810 121.1534 201° Southwest  Level FlightAware Approximate
03:06AM -20.3875 121.1086 202° Southwest  Level FlightAware Approximate
03:07AM -20.4844 121.0678 202° Southwest  Level FlightAware Approximate
03:07AM -20.5499 121.0402 202° Southwest 38,000  Level Aus ATC (Calculated)
03:09AM -20.7078 120.9735 202° Southwest  Level FlightAware Approximate
03:10AM -20.8142 120.9285 202° Southwest  Level FlightAware Approximate
03:11AM -20.9206 120.8834 202° Southwest  Level FlightAware Approximate
03:12AM -21.0271 120.8383 202° Southwest  Level FlightAware Approximate
03:12AM -21.1451 120.7849 202° Southwest 434 499 38,100  Level Aus ATC (RADAR)
03:13AM -21.3206 120.7120 201° Southwest 445 512 38,100  Level Aus ATC (RADAR)
03:15AM -21.4828 120.6422 202° Southwest 442 509 38,100  Level Aus ATC (RADAR)
03:16AM -21.6656 120.5642 202° Southwest 444 511 38,100  Level Aus ATC (RADAR)
03:18AM -21.8387 120.4910 201° Southwest 442 509 38,100  Level Aus ATC (RADAR)
03:19AM -22.0189 120.4133 202° Southwest 439 505 38,100  Level Aus ATC (RADAR)
03:21AM -22.1695 120.3484 202° Southwest 435 501 38,100  Level Aus ATC (RADAR)
03:22AM -22.3455 120.2711 202° Southwest 430 495 38,100  Level Aus ATC (RADAR)
03:23AM -22.4212 120.2393 201° Southwest 434 499 38,100  Level Aus ATC (RADAR)
03:23AM -22.4503 120.2275 201° Southwest 437 503 38,100  Level Aus ATC (RADAR)
03:24AM -22.5148 120.1988 202° Southwest 432 497 38,100  Level Aus ATC (RADAR)
03:24AM -22.5892 120.1669 202° Southwest 430 495 38,100  Level Aus ATC (RADAR)
03:25AM -22.6720 120.1304 202° Southwest 429 494 38,100  Level Aus ATC (RADAR)
03:26AM -22.7730 120.0860 202° Southwest 426 490 38,100  Level Aus ATC (RADAR)
03:26AM -22.8368 120.0583 202° Southwest 424 488 38,100  Level Aus ATC (RADAR)
03:27AM -22.9287 120.0192 201° Southwest 423 487 38,100  Level Aus ATC (RADAR)
03:28AM -22.9563 120.0076 201° Southwest 422 486 38,100  Level Aus ATC (RADAR)
03:28AM -23.0182 119.9802 202° Southwest 416 479 38,100  Level Aus ATC (RADAR)
03:29AM -23.1141 119.9378 202° Southwest 407 468 38,100  Level Aus ATC (RADAR)
03:30AM -23.2273 119.8883 202° Southwest 405 466 38,100  Level Aus ATC (RADAR)
03:31AM -23.3041 119.8542 202° Southwest 400 460 38,100  Level Aus ATC (RADAR)
03:31AM -23.3494 119.8350 201° Southwest 408 470 38,100  Level Aus ATC (RADAR)
03:32AM -23.4092 119.8081 202° Southwest 403 464 38,100  Level Aus ATC (RADAR)
03:33AM -23.5253 119.7600 201° Southwest 409 471 38,100  Level Aus ATC (RADAR)
03:34AM -23.5872 119.7341 201° Southwest 410 472 38,100  Level Aus ATC (RADAR)
03:36AM -23.7984 119.6456 201° Southwest 411 473 38,100  Level Aus ATC (RADAR)
03:36AM -23.8680 119.6163 201° Southwest 407 468 38,100  Level Aus ATC (RADAR)
03:37AM -23.9040 119.6013 201° Southwest 410 472 38,100  Level Aus ATC (RADAR)
03:37AM -23.9568 119.5791 201° Southwest 408 470 38,100  Level Aus ATC (RADAR)
03:38AM -24.0371 119.5453 201° Southwest 410 472 38,100  Level Aus ATC (RADAR)
03:38AM -24.1091 119.5150 201° Southwest 414 476 38,100  Level Aus ATC (RADAR)
03:39AM -24.1982 119.4775 201° Southwest 414 476 38,100  Level Aus ATC (RADAR)
03:40AM -24.2233 119.4673 200° South 406 467 38,100  Level Aus ATC (RADAR)
03:41AM -24.3667 119.4067 201° Southwest 413 475 38,100  Level Aus ATC (RADAR)
03:41AM -24.4112 119.3880 201° Southwest 413 475 38,100  Level Aus ATC (RADAR)
03:42AM -24.4742 119.3611 201° Southwest 415 478 38,100  Level Aus ATC (RADAR)
03:43AM -24.5794 119.3171 201° Southwest 406 467 38,100  Level Aus ATC (RADAR)
03:43AM -24.6418 119.2906 201° Southwest 409 471 38,100  Level Aus ATC (RADAR)
03:44AM -24.7401 119.2488 201° Southwest 413 475 38,100  Level Aus ATC (RADAR)
03:46AM -24.8923 119.1841 201° Southwest 416 479 38,100  Level Aus ATC (RADAR)
03:47AM -25.0006 119.1373 201° Southwest 417 480 38,100  Level Aus ATC (RADAR)
03:47AM -25.0266 119.1267 200° South 412 474 38,100  Level Aus ATC (RADAR)
03:48AM -25.1244 119.0850 201° Southwest 412 474 38,100  Level Aus ATC (RADAR)
03:48AM -25.1512 119.0735 201° Southwest 414 476 38,100  Level Aus ATC (RADAR)
03:49AM -25.2144 119.0457 202° Southwest 417 480 38,100  Level Aus ATC (RADAR)
03:50AM -25.3201 119.0011 201° Southwest 408 470 38,100  Level Aus ATC (RADAR)
03:51AM -25.3995 118.9666 201° Southwest 412 474 38,100  Level Aus ATC (RADAR)
03:51AM -25.4862 118.9289 201° Southwest 403 464 38,100  Level Aus ATC (RADAR)
03:52AM -25.5547 118.9004 201° Southwest 398 458 38,100  Level Aus ATC (RADAR)
03:53AM -25.6763 118.8469 202° Southwest 401 461 38,100  Level Aus ATC (RADAR)
03:54AM -25.7449 118.8178 201° Southwest 397 457 38,100  Level Aus ATC (RADAR)
03:55AM -25.8398 118.7765 201° Southwest 400 460 38,100  Level Aus ATC (RADAR)
03:56AM -25.9684 118.7202 201° Southwest 400 460 38,100  Level Aus ATC (RADAR)
03:56AM -25.9941 118.7099 200° South 399 459 38,100  Level Aus ATC (RADAR)
03:57AM -26.0631 118.6790 202° Southwest 400 460 38,100  Level Aus ATC (RADAR)
03:58AM -26.1653 118.6341 201° Southwest 397 457 38,100  Level Aus ATC (RADAR)
03:59AM -26.2341 118.6043 201° Southwest 400 460 38,100  Level Aus ATC (RADAR)
04:00AM -26.3290 118.5634 201° Southwest 400 460 38,100  Level Aus ATC (RADAR)
04:00AM -26.4141 118.5291 200° South 394 453 38,100  Level Aus ATC (RADAR)
04:01AM -26.4564 118.5128 199° South 389 448 38,100  Level Aus ATC (RADAR)
04:04AM -26.8215 118.3503 202° Southwest 38,000  Descending Aus ATC (Calculated)
04:06AM -26.9679 118.2856 201° Southwest  Level Estimated
04:07AM -27.0710 118.2393 202° Southwest  Level FlightAware Approximate
04:08AM -27.1742 118.1928 202° Southwest  Level FlightAware Approximate
04:09AM -27.2773 118.1463 202° Southwest  Level FlightAware Approximate
04:10AM -27.3804 118.0998 202° Southwest  Level FlightAware Approximate
04:10AM -27.4371 118.0737 202° Southwest 38,000  Level Aus ATC (Calculated)
04:11AM -27.5567 118.0196 202° Southwest 38,000  Level Aus ATC (Calculated)
04:13AM -27.7096 117.9502 202° Southwest  Level FlightAware Approximate
04:13AM -27.7361 117.9382 203° Southwest 38,000  Level Aus ATC (Calculated)
04:15AM -27.9370 117.8466 202° Southwest  Level FlightAware Approximate
04:15AM -27.9154 117.8565 204° Southwest 37,200  Level Aus ATC (Calculated)
04:15AM -27.9883 117.8235 206° Southwest 37,200 420 Level Aus ATC (Calculated)
04:16AM -28.0746 117.7764 22° Northeast 396 456 38,100 480 Climbing Aus ATC (RADAR)
04:17AM -27.8353 117.8927 22° Northeast  Level FlightAware Approximate
04:17AM -28.0998 117.7646 202° Southwest 394 453 38,100  Level Aus ATC (RADAR)
04:17AM -28.1589 117.7388 201° Southwest 392 451 38,100  Level Aus ATC (RADAR)
04:19AM -28.2823 117.6775 204° Southwest 387 445 38,100  Level Aus ATC (RADAR)
04:19AM -28.3398 117.6469 205° Southwest 390 449 38,100  Level Aus ATC (RADAR)
04:20AM -28.4242 117.6095 201° Southwest 391 450 38,100  Level Aus ATC (RADAR)
04:21AM -28.5422 117.5583 201° Southwest 391 450 38,100  Level Aus ATC (RADAR)
04:22AM -28.6091 117.5291 201° Southwest 384 442 38,100  Level Aus ATC (RADAR)
04:23AM -28.6928 117.4907 202° Southwest 385 443 38,100  Level Aus ATC (RADAR)
04:23AM -28.7763 117.4517 202° Southwest 389 448 38,100  Level Aus ATC (RADAR)
04:24AM -28.8361 117.4255 201° Southwest 395 455 38,100  Level Aus ATC (RADAR)
04:25AM -28.9469 117.3790 200° South 391 450 38,100  Level Aus ATC (RADAR)
04:25AM -28.9793 117.3620 205° Southwest 387 445 38,100 60 Level Aus ATC (RADAR)
04:27AM -29.1132 117.2997 202° Southwest 389 448 38,200 60 Climbing Aus ATC (RADAR)
04:27AM -29.1383 117.2887 201° Southwest 386 444 38,200  Level Aus ATC (RADAR)
04:28AM -29.1962 117.2606 203° Southwest 388 447 38,200  Level Aus ATC (RADAR)
04:29AM -29.2890 117.2224 200° South 385 443 38,200  Level Aus ATC (RADAR)
04:29AM -29.3477 117.1938 203° Southwest 389 448 38,200  Level Aus ATC (RADAR)
04:30AM -29.4748 117.1353 202° Southwest 391 450 38,200  Level Aus ATC (RADAR)
04:31AM -29.5820 117.0845 202° Southwest 385 443 38,200  Level Aus ATC (RADAR)
04:32AM -29.6066 117.0740 200° South 380 437 38,200  Level Aus ATC (RADAR)
04:32AM -29.6643 117.0469 202° Southwest 383 441 38,200 -240 Level Aus ATC (RADAR)
04:33AM -29.7463 117.0073 203° Southwest 380 437 37,900 -480 Descending Aus ATC (RADAR)
04:33AM -29.7785 116.9932 201° Southwest 375 432 37,700 -720 Descending Aus ATC (RADAR)
04:34AM -29.8334 116.9679 202° Southwest 365 420 37,300 -600 Descending Aus ATC (RADAR)
04:35AM -29.9181 116.9289 202° Southwest 362 417 36,800 -600 Descending Aus ATC (RADAR)
04:36AM -29.9744 116.9031 202° Southwest 369 425 36,400 -660 Descending Aus ATC (RADAR)
04:37AM -30.0863 116.8497 202° Southwest 373 429 35,700 -600 Descending Aus ATC (RADAR)
04:37AM -30.1103 116.8376 203° Southwest 376 433 35,600 -720 Descending Aus ATC (RADAR)
04:38AM -30.1671 116.8118 201° Southwest 376 433 35,100 -1,080 Descending Aus ATC (RADAR)
04:38AM -30.2551 116.7698 202° Southwest 370 426 34,000 -1,500 Descending Aus ATC (RADAR)
04:39AM -30.3186 116.7399 202° Southwest 367 422 32,800 -1,740 Descending Aus ATC (RADAR)
04:40AM -30.4087 116.6981 202° Southwest 378 435 31,300 -1,860 Descending Aus ATC (RADAR)
04:41AM -30.4565 116.6750 203° Southwest 372 428 30,200 -3,000 Descending Aus ATC (RADAR)
04:42AM -30.5626 116.6260 202° Southwest 381 438 26,600 -2,940 Descending Aus ATC (RADAR)
04:42AM -30.6463 116.5943 198° South 376 433 24,700 -2,160 Descending Aus ATC (RADAR)
04:43AM -30.7429 116.5559 199° South 370 426 22,700 -1,980 Descending Aus ATC (RADAR)
04:44AM -30.8012 116.5330 199° South 378 435 21,600 -1,920 Descending Aus ATC (RADAR)
04:45AM -30.8901 116.4992 198° South 364 419 19,900 -1,800 Descending Aus ATC (RADAR)
04:46AM -30.9452 116.4782 198° South 357 411 18,900 -1,740 Descending Aus ATC (RADAR)
04:47AM -31.0595 116.4333 199° South 345 397 16,800 -1,800 Descending Aus ATC (RADAR)
04:47AM -31.0829 116.4239 199° South 351 404 16,300 -1,800 Descending Aus ATC (RADAR)
04:48AM -31.1384 116.4025 198° South 357 411 15,300 -1,800 Descending Aus ATC (RADAR)
04:49AM -31.2311 116.3661 199° South 348 400 13,500 -1,800 Descending Aus ATC (RADAR)
04:49AM -31.2855 116.3444 199° South 355 409 12,500 -1,800 Descending Aus ATC (RADAR)
04:50AM -31.3798 116.3078 198° South 355 409 10,700 -1,860 Descending Aus ATC (RADAR)
04:51AM -31.4319 116.2837 202° Southwest 344 396 9,600 -1,620 Descending Aus ATC (RADAR)
04:52AM -31.5296 116.2214 209° Southwest 285 328 7,700 -1,560 Descending Aus ATC (RADAR)
04:52AM -31.5525 116.2065 209° Southwest 281 323 7,100 -1,020 Descending Aus ATC (RADAR)
04:53AM -31.5950 116.1784 209° Southwest 259 298 6,700 -1,020 Descending Aus ATC (RADAR)
04:54AM -31.6412 116.1392 216° Southwest 244 281 5,600 -1,380 Descending Aus ATC (RADAR)
04:55AM -31.6782 116.1080 216° Southwest 243 280 4,700 -1,380 Descending Aus ATC (RADAR)
04:55AM -31.7195 116.0737 215° Southwest 241 277 3,700 -900 Descending Aus ATC (RADAR)
04:56AM -31.7494 116.0484 216° Southwest 224 258 3,500 -660 Descending Aus ATC (RADAR)
04:57AM -31.8015 116.0056 215° Southwest 188 216 2,600 -900 Descending Aus ATC (RADAR)
04:57AM -31.8138 116.0014 196° South 184 212 2,300 -960 Descending Aus ATC (RADAR)
04:58AM -31.8407 115.9945 192° South 170 196 1,800 -780 Descending Aus ATC (RADAR)
04:59AM -31.8763 115.9838 194° South 124 143 1,100 -660 Descending Aus ATC (RADAR)
05:00AM -31.8979 115.9774 194° South 120 138 700 -600 Descending Aus ATC (RADAR)
05:01AM -31.9309 115.9679 194° South 122 140 100 -420 Descending Aus ATC (RADAR)
05:01AM -31.9425 115.9640 196° South 81 93 100  Level Aus ATC (RADAR)